Time;durP1;ratioP1;P1;durP2;ratioP2;P2;SDS_P1;SDS_P2;PMS_P1;PMS_P2;Temp;Humidity;BMP_temperature;BMP_pressure;BME280_temperature;BME280_humidity;BME280_pressure;Samples;Min_cycle;Max_cycle;Signal;HPM_P1;HPM_P2
2021/12/21 00:00:39;;;;;;;10.65;8.00;;;20.00;51.10;;;;;;5024431;28;20142;-77
2021/12/21 00:03:04;;;;;;;11.07;7.88;;;20.00;51.00;;;;;;5031120;28;20167;-77
2021/12/21 00:05:30;;;;;;;10.57;7.78;;;20.00;51.00;;;;;;5031810;28;20133;-77
2021/12/21 00:07:58;;;;;;;9.70;7.88;;;19.90;51.00;;;;;;5031116;28;20128;-77
2021/12/21 00:10:25;;;;;;;10.07;8.25;;;19.90;50.90;;;;;;5031270;28;20067;-76
2021/12/21 00:15:36;;;;;;;9.80;7.80;;;19.90;50.90;;;;;;5031374;28;20053;-76
2021/12/21 00:18:14;;;;;;;10.23;7.60;;;19.90;50.90;;;;;;5031176;28;20061;-76
2021/12/21 00:25:37;;;;;;;9.55;7.63;;;19.80;50.80;;;;;;5032500;28;20072;-77
2021/12/21 00:28:03;;;;;;;8.93;7.40;;;19.80;50.80;;;;;;5031281;28;20494;-77
2021/12/21 00:30:28;;;;;;;10.70;8.02;;;19.80;50.80;;;;;;5031048;28;20091;-77
2021/12/21 00:32:54;;;;;;;9.52;7.88;;;19.80;50.70;;;;;;5047850;28;20091;-77
2021/12/21 00:35:19;;;;;;;11.23;8.10;;;19.80;50.70;;;;;;5046861;28;20536;-77
2021/12/21 00:37:46;;;;;;;9.32;7.20;;;19.80;50.70;;;;;;5032034;28;20041;-78
2021/12/21 00:40:12;;;;;;;10.57;7.93;;;19.70;50.70;;;;;;5036565;28;20053;-77
2021/12/21 00:42:38;;;;;;;12.35;8.35;;;19.70;50.70;;;;;;5035726;28;20041;-77
2021/12/21 00:45:04;;;;;;;10.68;7.25;;;19.70;50.60;;;;;;5035830;28;20053;-78
2021/12/21 00:47:30;;;;;;;10.13;7.88;;;19.70;50.60;;;;;;5035254;28;20087;-78
2021/12/21 00:50:00;;;;;;;11.20;7.97;;;19.70;50.60;;;;;;5050617;28;20049;-78
2021/12/21 00:52:26;;;;;;;10.25;7.40;;;19.70;50.50;;;;;;5035100;28;20037;-77
2021/12/21 00:54:52;;;;;;;11.65;7.60;;;19.70;50.50;;;;;;5035353;28;20124;-77
2021/12/21 00:57:17;;;;;;;10.98;7.63;;;19.60;50.40;;;;;;5051318;28;20120;-77
2021/12/21 00:59:43;;;;;;;10.93;7.70;;;19.60;50.40;;;;;;5035122;28;20132;-78
2021/12/21 01:02:09;;;;;;;10.68;7.60;;;19.60;50.40;;;;;;5035245;28;20045;-77
2021/12/21 01:04:40;;;;;;;11.73;8.13;;;19.60;50.30;;;;;;5034394;28;20449;-78
2021/12/21 01:07:17;;;;;;;10.57;7.72;;;19.60;50.30;;;;;;5051212;28;20512;-78
2021/12/21 01:15:37;;;;;;;10.40;7.47;;;19.50;50.20;;;;;;5035189;28;20195;-77
2021/12/21 01:18:28;;;;;;;10.15;7.28;;;19.50;50.20;;;;;;5033457;28;20057;-77
2021/12/21 01:21:01;;;;;;;11.43;7.35;;;19.50;50.10;;;;;;5034971;28;20477;-78
2021/12/21 01:26:50;;;;;;;10.43;7.13;;;19.50;50.10;;;;;;5035563;28;20132;-79
2021/12/21 01:28:56;;;;;;;10.60;7.40;;;19.50;50.10;;;;;;5045288;28;20123;-78
2021/12/21 01:36:39;;;;;;;10.73;7.38;;;19.50;50.10;;;;;;5035635;28;20064;-77
2021/12/21 01:44:23;;;;;;;11.75;7.30;;;19.40;49.90;;;;;;5033034;28;20084;-78
2021/12/21 01:52:01;;;;;;;9.20;6.63;;;19.40;49.90;;;;;;5032565;28;20046;-77
2021/12/21 01:54:27;;;;;;;10.93;6.95;;;19.50;49.90;;;;;;5047798;28;20096;-77
2021/12/21 01:56:53;;;;;;;11.20;7.15;;;19.40;49.80;;;;;;5033153;28;20041;-78
2021/12/21 01:59:19;;;;;;;11.05;6.88;;;19.50;49.80;;;;;;5049459;28;20053;-76
2021/12/21 02:01:44;;;;;;;10.27;7.32;;;19.50;49.80;;;;;;5033619;28;20432;-77
2021/12/21 02:04:14;;;;;;;10.02;6.47;;;19.40;49.70;;;;;;5050051;28;20055;-77
2021/12/21 02:06:40;;;;;;;8.50;6.15;;;19.50;49.70;;;;;;5034111;28;20489;-78
2021/12/21 02:09:05;;;;;;;8.88;6.68;;;19.40;49.60;;;;;;5049938;28;20042;-77
2021/12/21 02:11:31;;;;;;;8.07;5.75;;;19.40;49.60;;;;;;5034455;28;20045;-77
2021/12/21 02:13:57;;;;;;;9.10;6.15;;;19.40;49.50;;;;;;5049164;28;20046;-77
2021/12/21 02:19:22;;;;;;;9.05;6.07;;;19.40;49.50;;;;;;5024829;28;20060;-77
2021/12/21 02:21:52;;;;;;;9.43;6.07;;;19.40;49.50;;;;;;5033190;28;20052;-78
2021/12/21 02:24:22;;;;;;;9.05;6.07;;;19.40;49.50;;;;;;5033181;28;20071;-78
2021/12/21 02:27:56;;;;;;;9.25;5.75;;;19.40;49.60;;;;;;5032351;28;20049;-78
2021/12/21 02:29:43;;;;;;;7.78;5.65;;;19.40;49.60;;;;;;5027926;28;20524;-78
2021/12/21 02:32:12;;;;;;;9.23;5.85;;;19.40;49.70;;;;;;5033380;28;20073;-78
2021/12/21 02:34:38;;;;;;;8.63;5.80;;;19.40;49.70;;;;;;5048919;28;20053;-78
2021/12/21 02:37:03;;;;;;;8.40;5.53;;;19.40;49.80;;;;;;5032744;28;20034;-78
2021/12/21 02:39:29;;;;;;;8.95;6.40;;;19.40;49.80;;;;;;5049635;28;20092;-77
2021/12/21 02:41:54;;;;;;;9.05;5.82;;;19.40;49.80;;;;;;5048367;28;20164;-78
2021/12/21 02:44:20;;;;;;;8.80;5.40;;;19.40;49.80;;;;;;5049276;28;20144;-78
2021/12/21 02:46:45;;;;;;;7.30;4.90;;;19.40;49.80;;;;;;5032743;28;20044;-78
2021/12/21 02:49:11;;;;;;;8.05;5.15;;;19.40;49.80;;;;;;5048745;28;20040;-78
2021/12/21 02:51:38;;;;;;;8.57;5.18;;;19.40;49.80;;;;;;5034369;28;20065;-78
2021/12/21 02:54:04;;;;;;;8.43;5.22;;;19.40;49.80;;;;;;5033541;28;20064;-78
2021/12/21 02:56:29;;;;;;;8.25;5.07;;;19.50;49.80;;;;;;5048783;28;20488;-78
2021/12/21 02:58:55;;;;;;;8.48;5.20;;;19.40;49.80;;;;;;5033293;28;20065;-78
2021/12/21 03:01:20;;;;;;;7.93;5.07;;;19.50;49.80;;;;;;5031863;28;20401;-78
2021/12/21 03:03:46;;;;;;;9.15;5.53;;;19.50;49.80;;;;;;5030907;28;20425;-78
2021/12/21 03:06:35;;;;;;;8.13;4.95;;;19.50;49.80;;;;;;5047747;28;20048;-79
2021/12/21 03:08:58;;;;;;;7.00;4.38;;;19.50;49.80;;;;;;5047028;28;20049;-78
2021/12/21 03:11:48;;;;;;;7.63;4.85;;;19.50;49.80;;;;;;5032326;28;20049;-78
2021/12/21 03:14:13;;;;;;;7.10;4.45;;;19.50;49.80;;;;;;5047742;28;20493;-78
2021/12/21 03:16:39;;;;;;;8.70;4.90;;;19.50;49.70;;;;;;5048536;28;20053;-78
2021/12/21 03:19:07;;;;;;;8.18;4.47;;;19.50;49.70;;;;;;5033196;28;20049;-78
2021/12/21 03:21:33;;;;;;;8.30;4.53;;;19.50;49.70;;;;;;5032302;28;20079;-78
2021/12/21 03:23:58;;;;;;;7.22;4.40;;;19.50;49.70;;;;;;5032033;28;20041;-79
2021/12/21 03:26:24;;;;;;;7.13;4.40;;;19.50;49.70;;;;;;5032198;28;20052;-78
2021/12/21 03:28:50;;;;;;;6.75;4.10;;;19.60;49.70;;;;;;5048680;28;20124;-78
2021/12/21 03:31:16;;;;;;;7.03;4.25;;;19.50;49.60;;;;;;5032676;28;20076;-78
2021/12/21 03:33:41;;;;;;;5.68;3.72;;;19.50;49.60;;;;;;5032851;28;20124;-78
2021/12/21 03:36:07;;;;;;;6.70;4.20;;;19.60;49.70;;;;;;5033137;28;20041;-78
2021/12/21 03:38:33;;;;;;;8.18;4.57;;;19.50;49.50;;;;;;5031492;28;20048;-78
2021/12/21 03:41:05;;;;;;;7.20;4.10;;;19.60;49.50;;;;;;5048150;28;20041;-79
2021/12/21 03:43:31;;;;;;;6.90;3.53;;;19.60;49.50;;;;;;5047785;28;20056;-79
2021/12/21 03:46:09;;;;;;;6.55;3.97;;;19.60;49.50;;;;;;5047895;28;20038;-79
2021/12/21 03:48:35;;;;;;;5.67;3.90;;;19.60;49.60;;;;;;5031552;28;20077;-79
2021/12/21 03:51:00;;;;;;;6.60;3.92;;;19.60;49.60;;;;;;5032160;28;20045;-79
2021/12/21 03:53:26;;;;;;;6.50;3.72;;;19.60;49.50;;;;;;5032996;28;20045;-78
2021/12/21 03:56:02;;;;;;;5.35;3.30;;;19.60;49.50;;;;;;5032671;28;20116;-78
2021/12/21 03:58:28;;;;;;;6.22;3.50;;;19.60;49.60;;;;;;5032101;28;20053;-78
2021/12/21 04:00:53;;;;;;;6.97;3.70;;;19.60;49.50;;;;;;5047918;28;20061;-78
2021/12/21 04:03:19;;;;;;;7.35;3.88;;;19.60;49.50;;;;;;5047745;28;20052;-78
2021/12/21 04:05:44;;;;;;;5.60;3.03;;;19.60;49.50;;;;;;5047216;28;20052;-78
2021/12/21 04:08:10;;;;;;;6.20;3.33;;;19.60;49.40;;;;;;5033000;28;20046;-78
2021/12/21 04:10:35;;;;;;;5.53;3.00;;;19.60;49.40;;;;;;5032839;28;20057;-79
2021/12/21 04:13:01;;;;;;;6.35;3.50;;;19.70;49.40;;;;;;5046676;28;20064;-79
2021/12/21 04:15:28;;;;;;;6.30;3.83;;;19.70;49.40;;;;;;5031422;28;20540;-78
2021/12/21 04:17:54;;;;;;;6.18;3.60;;;19.70;49.40;;;;;;5032357;28;20053;-78
2021/12/21 04:20:20;;;;;;;5.32;3.20;;;19.70;49.40;;;;;;5047111;28;20046;-78
2021/12/21 04:22:45;;;;;;;5.45;3.35;;;19.70;49.40;;;;;;5047579;28;20047;-78
2021/12/21 04:25:12;;;;;;;5.38;3.00;;;19.70;49.30;;;;;;5047776;28;20053;-77
2021/12/21 04:27:38;;;;;;;6.72;3.47;;;19.70;49.30;;;;;;5047444;28;20058;-78
2021/12/21 04:30:04;;;;;;;5.05;3.00;;;19.70;49.30;;;;;;5031269;28;20455;-77
2021/12/21 04:32:29;;;;;;;5.28;3.08;;;19.70;49.30;;;;;;5031545;28;20472;-77
2021/12/21 04:34:55;;;;;;;5.60;3.28;;;19.70;49.30;;;;;;5047150;28;20145;-77
2021/12/21 04:37:22;;;;;;;5.85;3.15;;;19.70;49.30;;;;;;5047778;28;20033;-77
2021/12/21 04:40:14;;;;;;;5.95;2.85;;;19.70;49.30;;;;;;5047285;28;20050;-77
2021/12/21 04:42:34;;;;;;;5.75;3.25;;;19.70;49.30;;;;;;5047229;28;20045;-78
2021/12/21 04:44:59;;;;;;;4.80;2.70;;;19.70;49.30;;;;;;5047356;28;20052;-78
2021/12/21 04:47:25;;;;;;;5.15;2.70;;;19.70;49.20;;;;;;5031562;28;20085;-77
2021/12/21 04:49:52;;;;;;;5.28;3.05;;;19.80;49.20;;;;;;5031000;28;20068;-77
2021/12/21 04:52:17;;;;;;;5.53;3.17;;;19.70;49.20;;;;;;5047456;28;20478;-77
2021/12/21 04:54:43;;;;;;;6.05;2.90;;;19.70;49.20;;;;;;5031287;28;20041;-77
2021/12/21 04:57:08;;;;;;;5.20;2.85;;;19.80;49.20;;;;;;5032248;28;20053;-76
2021/12/21 04:59:34;;;;;;;5.88;3.05;;;19.80;49.20;;;;;;5047409;28;20049;-77
2021/12/21 05:02:00;;;;;;;4.30;2.80;;;19.70;49.10;;;;;;5029879;28;20669;-77
2021/12/21 05:04:25;;;;;;;5.22;2.97;;;19.80;49.20;;;;;;5029909;28;20056;-77
2021/12/21 05:06:51;;;;;;;4.90;2.75;;;19.80;49.20;;;;;;5029579;28;20052;-77
2021/12/21 05:09:24;;;;;;;5.30;3.15;;;19.80;49.20;;;;;;5029910;28;20087;-77
2021/12/21 05:11:50;;;;;;;5.85;2.90;;;19.80;49.10;;;;;;5030974;28;20076;-77
2021/12/21 05:14:16;;;;;;;5.07;2.90;;;19.80;49.10;;;;;;5031888;28;20492;-77
2021/12/21 05:16:41;;;;;;;4.60;2.80;;;19.80;49.00;;;;;;5030266;28;20049;-77
2021/12/21 05:19:07;;;;;;;5.55;2.95;;;19.80;49.00;;;;;;5030123;28;20069;-77
2021/12/21 05:21:33;;;;;;;5.75;2.97;;;19.80;49.00;;;;;;5047328;28;20045;-77
2021/12/21 05:23:58;;;;;;;4.30;2.70;;;19.80;49.00;;;;;;5047798;28;20037;-77
2021/12/21 05:26:24;;;;;;;6.85;3.22;;;19.80;48.90;;;;;;5034875;28;20504;-77
2021/12/21 05:28:49;;;;;;;5.20;3.33;;;19.80;49.00;;;;;;5050654;28;20393;-77
2021/12/21 05:31:15;;;;;;;6.47;3.22;;;19.80;48.80;;;;;;5032624;28;20121;-77
2021/12/21 05:33:40;;;;;;;6.63;2.90;;;19.80;48.90;;;;;;5034218;28;20133;-78
2021/12/21 05:36:06;;;;;;;5.22;2.75;;;19.80;48.90;;;;;;5033795;28;20041;-77
2021/12/21 05:38:34;;;;;;;5.40;3.10;;;19.80;48.90;;;;;;5035196;28;20045;-77
2021/12/21 05:41:02;;;;;;;5.10;2.80;;;19.90;48.80;;;;;;5035358;28;20037;-78
2021/12/21 05:43:28;;;;;;;6.03;3.00;;;19.80;48.80;;;;;;5033262;28;20055;-78
2021/12/21 05:45:53;;;;;;;5.70;2.88;;;19.80;48.70;;;;;;5050539;28;20038;-78
2021/12/21 05:48:19;;;;;;;6.20;2.92;;;19.80;48.80;;;;;;5050843;28;20501;-78
2021/12/21 05:50:45;;;;;;;5.70;3.17;;;19.80;48.80;;;;;;5033376;28;20128;-77
2021/12/21 05:53:10;;;;;;;5.78;2.90;;;19.80;48.70;;;;;;5035195;28;20137;-76
2021/12/21 05:55:36;;;;;;;6.97;3.00;;;19.80;48.60;;;;;;5035428;28;20112;-76
2021/12/21 05:58:01;;;;;;;6.97;3.08;;;19.80;48.70;;;;;;5032793;28;20409;-76
2021/12/21 06:00:29;;;;;;;6.05;3.10;;;19.80;48.60;;;;;;5050481;28;20041;-76
2021/12/21 06:02:55;;;;;;;7.15;3.53;;;19.90;48.70;;;;;;5033774;28;20060;-77
2021/12/21 06:05:20;;;;;;;5.22;3.13;;;19.90;48.70;;;;;;5033202;28;20140;-77
2021/12/21 06:07:49;;;;;;;5.53;2.90;;;19.80;48.60;;;;;;5033395;28;20041;-77
2021/12/21 06:10:21;;;;;;;4.80;2.88;;;19.90;48.60;;;;;;5050464;28;20049;-77
2021/12/21 06:15:31;;;;;;;5.97;3.58;;;19.90;48.60;;;;;;5033497;28;20045;-77
2021/12/21 06:25:57;;;;;;;6.70;3.30;;;19.90;48.50;;;;;;5032266;28;20401;-78
2021/12/21 06:28:23;;;;;;;8.77;3.15;;;19.90;48.40;;;;;;5037426;28;20104;-77
2021/12/21 06:30:49;;;;;;;7.68;3.63;;;19.90;48.40;;;;;;5026637;28;20037;-77
2021/12/21 06:33:14;;;;;;;4.75;2.78;;;19.90;48.40;;;;;;5033725;28;20095;-77
2021/12/21 06:35:40;;;;;;;6.20;3.20;;;19.90;48.40;;;;;;5033710;28;20068;-77
2021/12/21 06:38:06;;;;;;;7.10;3.33;;;19.90;48.40;;;;;;5033100;28;20478;-77
2021/12/21 06:40:31;;;;;;;6.18;2.97;;;19.90;48.30;;;;;;5033605;28;20053;-77
2021/12/21 06:43:00;;;;;;;5.03;3.13;;;19.90;48.30;;;;;;5034087;28;20037;-77
2021/12/21 06:45:42;;;;;;;4.97;2.70;;;19.90;48.30;;;;;;5034289;28;20098;-77
2021/12/21 06:51:13;;;;;;;6.30;3.20;;;19.90;48.20;;;;;;5032868;28;20136;-78
2021/12/21 06:53:39;;;;;;;6.18;3.08;;;19.90;48.20;;;;;;5031586;28;20045;-77
2021/12/21 06:56:05;;;;;;;5.70;3.10;;;19.90;48.20;;;;;;5032140;28;20057;-77
2021/12/21 06:58:30;;;;;;;5.05;3.42;;;19.90;48.20;;;;;;5032110;28;20099;-77
2021/12/21 07:00:57;;;;;;;5.75;2.97;;;19.90;48.20;;;;;;5032769;28;20057;-77
2021/12/21 07:03:22;;;;;;;7.15;3.40;;;19.90;48.20;;;;;;5016174;28;20045;-76
2021/12/21 07:05:48;;;;;;;5.25;2.75;;;19.90;48.20;;;;;;5033757;28;20496;-77
2021/12/21 07:08:17;;;;;;;6.72;3.38;;;20.00;48.30;;;;;;5031696;28;20034;-77
2021/12/21 07:10:52;;;;;;;6.43;3.50;;;20.00;48.30;;;;;;5033613;28;20094;-76
2021/12/21 07:18:46;;;;;;;5.90;3.17;;;20.00;48.20;;;;;;5033370;28;20046;-76
2021/12/21 07:21:11;;;;;;;6.65;3.92;;;20.00;48.20;;;;;;5032371;28;20504;-77
2021/12/21 07:23:37;;;;;;;7.97;3.45;;;20.00;48.10;;;;;;5048041;28;20056;-79
2021/12/21 07:26:02;;;;;;;6.03;3.10;;;20.00;48.10;;;;;;5048731;28;20045;-79
2021/12/21 07:28:28;;;;;;;7.47;3.17;;;20.00;48.10;;;;;;5031680;28;20469;-78
2021/12/21 07:30:54;;;;;;;6.13;3.28;;;20.00;48.20;;;;;;5048375;28;20048;-78
2021/12/21 07:33:20;;;;;;;5.57;3.20;;;20.00;48.30;;;;;;5048896;28;20053;-78
2021/12/21 07:35:45;;;;;;;5.43;3.28;;;20.00;48.30;;;;;;5047450;28;20504;-78
2021/12/21 07:38:11;;;;;;;7.85;3.38;;;20.00;48.30;;;;;;5048440;28;20080;-78
2021/12/21 07:40:37;;;;;;;4.88;3.20;;;20.00;48.30;;;;;;5048390;28;20045;-78
2021/12/21 07:43:03;;;;;;;6.93;3.22;;;20.00;48.30;;;;;;5030601;28;20511;-78
2021/12/21 07:45:29;;;;;;;7.97;3.75;;;20.00;48.30;;;;;;5032238;28;20045;-77
2021/12/21 07:47:54;;;;;;;9.98;3.70;;;20.00;48.40;;;;;;5035679;28;20041;-75
2021/12/21 07:50:20;;;;;;;7.75;3.58;;;20.00;48.50;;;;;;5031728;28;20048;-72
2021/12/21 07:52:46;;;;;;;8.68;3.42;;;20.00;48.60;;;;;;5031392;28;20055;-75
2021/12/21 07:55:11;;;;;;;6.53;3.10;;;20.00;48.80;;;;;;5043026;28;20033;-73
2021/12/21 07:57:37;;;;;;;7.50;3.78;;;20.00;49.10;;;;;;5030222;28;20547;-73
2021/12/21 08:00:04;;;;;;;7.85;3.35;;;20.00;49.30;;;;;;5031122;28;20073;-66
2021/12/21 08:02:30;;;;;;;6.72;3.53;;;20.00;49.40;;;;;;5032681;28;20409;-74
2021/12/21 08:04:56;;;;;;;10.00;3.60;;;20.00;49.30;;;;;;5032813;28;20485;-78
2021/12/21 08:07:28;;;;;;;8.43;3.97;;;20.10;49.40;;;;;;5031764;28;20049;-75
2021/12/21 08:09:55;;;;;;;5.57;2.92;;;20.10;49.50;;;;;;5032331;28;20045;-72
2021/12/21 08:12:21;;;;;;;10.15;3.95;;;20.10;49.70;;;;;;5030647;28;20041;-76
2021/12/21 08:14:50;;;;;;;6.07;3.60;;;20.10;49.60;;;;;;5032692;28;20060;-76
2021/12/21 08:17:16;;;;;;;6.85;3.15;;;20.10;49.60;;;;;;5031552;28;20100;-76
2021/12/21 08:19:42;;;;;;;8.10;3.58;;;20.10;49.70;;;;;;5030189;28;20441;-78
2021/12/21 08:22:08;;;;;;;8.52;3.70;;;20.10;49.80;;;;;;5032814;28;20061;-74
2021/12/21 08:24:33;;;;;;;8.68;3.97;;;20.10;49.90;;;;;;5030130;28;20557;-75
2021/12/21 08:27:00;;;;;;;7.60;3.67;;;20.10;49.80;;;;;;5047128;28;20037;-77
2021/12/21 08:29:26;;;;;;;8.35;3.75;;;20.00;49.50;;;;;;5031303;28;20146;-77
2021/12/21 08:31:52;;;;;;;8.82;4.13;;;20.10;49.40;;;;;;5030257;28;20405;-75
2021/12/21 08:34:17;;;;;;;6.80;3.80;;;20.10;49.50;;;;;;5047944;28;20485;-77
2021/12/21 08:36:43;;;;;;;9.57;4.32;;;20.10;49.50;;;;;;5030845;28;20041;-76
2021/12/21 08:39:09;;;;;;;9.75;4.22;;;20.10;49.50;;;;;;5047239;28;20059;-74
2021/12/21 08:41:41;;;;;;;8.48;4.28;;;20.10;49.60;;;;;;5032555;28;20041;-75
2021/12/21 08:44:07;;;;;;;8.52;4.03;;;20.10;49.60;;;;;;5047816;28;20045;-76
2021/12/21 08:46:32;;;;;;;10.00;4.20;;;20.10;49.50;;;;;;5031815;28;20057;-78
2021/12/21 08:48:58;;;;;;;7.53;4.22;;;20.20;49.50;;;;;;5031269;28;20037;-75
2021/12/21 08:51:23;;;;;;;10.50;3.92;;;20.20;49.60;;;;;;5032064;28;20025;-74
2021/12/21 08:53:49;;;;;;;8.07;3.97;;;20.10;49.30;;;;;;5029302;28;20547;-74
2021/12/21 08:56:16;;;;;;;7.75;4.13;;;20.20;49.30;;;;;;5030811;28;20068;-74
2021/12/21 08:58:42;;;;;;;8.98;3.95;;;20.20;49.40;;;;;;5032805;28;20057;-75
2021/12/21 09:01:07;;;;;;;10.55;4.43;;;20.20;49.50;;;;;;5033930;28;20049;-75
2021/12/21 09:03:34;;;;;;;7.30;3.88;;;20.20;49.50;;;;;;5034574;28;20103;-75
2021/12/21 09:05:59;;;;;;;9.35;4.13;;;20.20;49.50;;;;;;5035870;28;20077;-76
2021/12/21 09:08:25;;;;;;;7.82;4.18;;;20.20;49.60;;;;;;5035113;28;20088;-75
2021/12/21 09:10:51;;;;;;;8.15;4.45;;;20.20;49.70;;;;;;5035655;28;20080;-76
2021/12/21 09:13:17;;;;;;;7.80;3.95;;;20.20;49.70;;;;;;5034734;28;20068;-75
2021/12/21 09:15:43;;;;;;;9.02;4.13;;;20.20;49.70;;;;;;5033649;28;20041;-75
2021/12/21 09:18:08;;;;;;;8.20;4.30;;;20.20;49.60;;;;;;5035518;28;20052;-75
2021/12/21 09:20:34;;;;;;;6.47;4.10;;;20.20;49.60;;;;;;5034787;28;20045;-76
2021/12/21 09:23:00;;;;;;;8.82;4.30;;;20.20;49.50;;;;;;5033547;28;20037;-76
2021/12/21 09:25:26;;;;;;;8.10;3.85;;;20.20;49.50;;;;;;5034483;28;20057;-77
2021/12/21 09:27:52;;;;;;;9.50;4.60;;;20.30;49.50;;;;;;5034129;28;20478;-76
2021/12/21 09:30:18;;;;;;;8.50;4.45;;;20.20;49.40;;;;;;5033637;28;20057;-76
2021/12/21 09:32:44;;;;;;;7.03;3.92;;;20.30;49.40;;;;;;5033845;28;20120;-76
2021/12/21 09:35:10;;;;;;;8.00;4.65;;;20.30;49.40;;;;;;5033517;28;20133;-76
2021/12/21 09:37:35;;;;;;;8.50;4.50;;;20.30;49.40;;;;;;5034073;28;20060;-75
2021/12/21 09:40:02;;;;;;;9.18;4.68;;;20.30;49.50;;;;;;5034165;28;20482;-76
2021/12/21 09:42:29;;;;;;;7.72;3.58;;;20.30;49.30;;;;;;5033810;28;20155;-76
2021/12/21 09:44:55;;;;;;;8.07;4.10;;;20.30;49.30;;;;;;5033506;28;20052;-75
2021/12/21 09:47:20;;;;;;;7.80;3.83;;;20.30;49.20;;;;;;5033895;28;20041;-75
2021/12/21 09:49:46;;;;;;;7.88;3.80;;;20.30;49.20;;;;;;5032910;28;20049;-75
2021/12/21 09:52:13;;;;;;;6.30;3.95;;;20.30;49.20;;;;;;5034054;28;20136;-76
2021/12/21 09:54:38;;;;;;;7.82;4.45;;;20.30;49.20;;;;;;5034169;28;20091;-76
2021/12/21 09:57:05;;;;;;;9.13;4.45;;;20.30;49.20;;;;;;5032831;28;20041;-74
2021/12/21 09:59:30;;;;;;;7.05;4.20;;;20.30;49.10;;;;;;5033687;28;20076;-75
2021/12/21 10:01:57;;;;;;;7.45;3.88;;;20.30;49.10;;;;;;5033355;28;20489;-74
2021/12/21 10:04:26;;;;;;;7.10;3.80;;;20.30;49.20;;;;;;5032987;28;20042;-75
2021/12/21 10:06:54;;;;;;;8.82;4.25;;;20.30;49.10;;;;;;5035634;28;20371;-76
2021/12/21 10:09:20;;;;;;;8.07;4.22;;;20.30;49.00;;;;;;5033755;28;20026;-76
2021/12/21 10:11:50;;;;;;;9.48;4.13;;;20.30;48.90;;;;;;5033283;28;20046;-76
2021/12/21 10:14:17;;;;;;;6.30;3.80;;;20.30;48.80;;;;;;5034754;28;20460;-75
2021/12/21 10:16:42;;;;;;;8.43;3.67;;;20.40;49.00;;;;;;5034863;28;20041;-75
2021/12/21 10:19:08;;;;;;;7.45;3.78;;;20.30;49.10;;;;;;5032798;28;20406;-76
2021/12/21 10:21:44;;;;;;;10.07;4.20;;;20.30;49.20;;;;;;5033621;28;20124;-76
2021/12/21 10:24:09;;;;;;;8.93;4.40;;;20.40;49.30;;;;;;5034614;28;20499;-77
2021/12/21 10:26:35;;;;;;;9.35;4.45;;;20.40;49.20;;;;;;5034168;28;20176;-77
2021/12/21 10:29:02;;;;;;;8.93;4.70;;;20.30;49.00;;;;;;5033119;28;20102;-77
2021/12/21 10:31:28;;;;;;;9.23;4.55;;;20.30;49.60;;;;;;5034013;28;20053;-74
2021/12/21 10:33:56;;;;;;;9.27;5.10;;;20.30;48.90;;;;;;5032793;28;20065;-73
2021/12/21 10:36:23;;;;;;;8.27;4.93;;;20.30;48.60;;;;;;5032465;28;20470;-72
2021/12/21 10:38:59;;;;;;;10.18;5.40;;;20.30;48.50;;;;;;5031786;28;20048;-73
2021/12/21 10:41:38;;;;;;;9.57;5.20;;;20.30;48.20;;;;;;5031989;28;20042;-73
2021/12/21 10:44:08;;;;;;;14.15;5.68;;;20.20;47.90;;;;;;5039848;28;20038;-75
2021/12/21 10:46:35;;;;;;;8.93;5.25;;;20.20;48.10;;;;;;5039959;28;20482;-75
2021/12/21 10:49:25;;;;;;;15.88;5.32;;;20.30;48.50;;;;;;5033269;28;20052;-78
2021/12/21 10:52:01;;;;;;;9.20;4.85;;;20.30;49.10;;;;;;5030002;28;20088;-79
2021/12/21 10:54:30;;;;;;;10.63;5.05;;;20.30;49.20;;;;;;5048750;28;20056;-80
2021/12/21 10:56:59;;;;;;;9.75;4.75;;;20.30;49.30;;;;;;5032522;28;20054;-82
2021/12/21 10:59:32;;;;;;;9.50;4.57;;;20.30;49.30;;;;;;5032600;28;20061;-78
2021/12/21 11:02:11;;;;;;;7.85;4.85;;;20.30;49.50;;;;;;5032283;28;20469;-79
2021/12/21 11:04:37;;;;;;;11.65;5.10;;;20.40;49.60;;;;;;5032511;28;20049;-80
2021/12/21 11:07:24;;;;;;;9.35;4.47;;;20.40;49.60;;;;;;5032032;28;20033;-80
2021/12/21 11:09:57;;;;;;;9.57;4.77;;;20.40;49.70;;;;;;5032647;28;20045;-79
2021/12/21 11:12:24;;;;;;;8.30;4.65;;;20.40;49.80;;;;;;5048814;28;20053;-81
2021/12/21 11:14:51;;;;;;;8.48;4.93;;;20.40;49.80;;;;;;5030069;28;20053;-76
2021/12/21 11:17:16;;;;;;;8.02;4.60;;;20.40;49.90;;;;;;5032659;28;20061;-76
2021/12/21 11:19:42;;;;;;;6.88;4.18;;;20.40;50.00;;;;;;5031933;28;20053;-73
2021/12/21 11:22:08;;;;;;;9.38;4.45;;;20.40;50.00;;;;;;5032792;28;20049;-80
2021/12/21 11:24:34;;;;;;;6.95;3.97;;;20.40;50.10;;;;;;5015797;28;20047;-81
2021/12/21 11:27:01;;;;;;;8.20;4.35;;;20.40;50.10;;;;;;5015702;28;20041;-80
2021/12/21 11:29:27;;;;;;;9.55;4.45;;;20.40;50.20;;;;;;5031393;28;20053;-77
2021/12/21 11:31:55;;;;;;;7.13;4.38;;;20.50;50.20;;;;;;5031630;28;20048;-79
2021/12/21 11:34:24;;;;;;;8.40;4.35;;;20.50;50.20;;;;;;5015907;28;20390;-78
2021/12/21 11:39:38;;;;;;;;;;;20.50;50.30;;;;;;5032324;28;20493;-76
2021/12/21 11:42:05;;;;;;;6.53;3.92;;;20.50;50.00;;;;;;5029263;28;19928;-75
2021/12/21 11:45:01;;;;;;;6.57;3.78;;;20.50;49.80;;;;;;5031975;28;20045;-76
2021/12/21 11:47:56;;;;;;;7.20;3.88;;;20.50;49.60;;;;;;5032301;28;20068;-75
2021/12/21 11:50:22;;;;;;;9.40;4.20;;;20.50;49.60;;;;;;5017342;28;20497;-76
2021/12/21 11:52:49;;;;;;;7.28;3.78;;;20.50;49.70;;;;;;5031605;28;20072;-75
2021/12/21 11:55:16;;;;;;;8.93;4.55;;;20.50;49.80;;;;;;5031636;28;20497;-75
2021/12/21 11:57:46;;;;;;;5.78;3.80;;;20.50;49.80;;;;;;5030567;28;20041;-73
2021/12/21 12:00:19;;;;;;;8.60;4.30;;;20.50;49.90;;;;;;5032227;28;20409;-73
2021/12/21 12:02:45;;;;;;;9.20;4.20;;;20.50;49.90;;;;;;5031435;28;20057;-73
2021/12/21 12:05:21;;;;;;;6.57;3.75;;;20.50;49.90;;;;;;5030567;28;20057;-73
2021/12/21 12:07:57;;;;;;;8.18;3.72;;;20.50;50.00;;;;;;5031460;28;20053;-77
2021/12/21 12:10:22;;;;;;;8.15;3.70;;;20.50;50.00;;;;;;5030512;28;20079;-74
2021/12/21 12:12:48;;;;;;;8.05;4.10;;;20.50;50.00;;;;;;4997851;28;20045;-74
2021/12/21 12:15:14;;;;;;;8.45;3.47;;;20.50;50.10;;;;;;5022403;28;20053;-74
2021/12/21 12:17:47;;;;;;;8.10;4.13;;;20.50;50.30;;;;;;5030607;28;20045;-77
2021/12/21 12:20:14;;;;;;;6.85;3.80;;;20.50;50.40;;;;;;5031155;28;20045;-75
2021/12/21 12:22:46;;;;;;;6.75;3.80;;;20.50;50.50;;;;;;5032662;28;20386;-71
2021/12/21 12:25:22;;;;;;;9.93;3.40;;;20.50;50.70;;;;;;5031657;28;20056;-75
2021/12/21 12:27:50;;;;;;;6.55;3.45;;;20.60;50.70;;;;;;5031256;28;20158;-78
2021/12/21 12:30:20;;;;;;;8.15;3.35;;;20.60;50.60;;;;;;5032546;28;20119;-77
2021/12/21 12:32:55;;;;;;;8.55;3.28;;;20.60;50.50;;;;;;5031361;28;20073;-77
2021/12/21 12:35:25;;;;;;;8.02;3.50;;;20.50;50.00;;;;;;5036158;28;20659;-78
2021/12/21 12:38:02;;;;;;;7.15;3.20;;;20.50;50.00;;;;;;5034128;28;20112;-77
2021/12/21 12:40:54;;;;;;;7.95;3.38;;;20.50;50.10;;;;;;5036563;28;20071;-77
2021/12/21 12:43:30;;;;;;;7.88;3.30;;;20.50;50.20;;;;;;5036786;28;20061;-77
2021/12/21 12:46:04;;;;;;;8.52;3.38;;;20.50;50.20;;;;;;5034404;28;20072;-77
2021/12/21 12:48:40;;;;;;;8.25;2.70;;;20.50;50.30;;;;;;5035157;28;20508;-77
2021/12/21 12:51:07;;;;;;;7.50;2.85;;;20.50;50.30;;;;;;5052020;28;20130;-78
2021/12/21 12:53:34;;;;;;;7.40;3.03;;;20.50;50.30;;;;;;5034408;28;20045;-77
2021/12/21 12:56:00;;;;;;;6.55;2.92;;;20.50;50.30;;;;;;5051390;28;20553;-77
2021/12/21 12:58:27;;;;;;;5.28;2.65;;;20.50;50.30;;;;;;5034982;28;20061;-77
2021/12/21 13:01:00;;;;;;;7.82;3.00;;;20.50;50.40;;;;;;5050827;28;20069;-77
2021/12/21 13:03:34;;;;;;;8.68;3.08;;;20.50;50.40;;;;;;5033684;28;20057;-77
2021/12/21 13:06:01;;;;;;;4.78;2.72;;;20.50;50.40;;;;;;5035768;28;20041;-77
2021/12/21 13:08:27;;;;;;;6.35;2.78;;;20.50;50.50;;;;;;5050926;28;20080;-77
2021/12/21 13:10:55;;;;;;;6.70;2.40;;;20.50;50.50;;;;;;5051517;28;20126;-77
2021/12/21 13:13:31;;;;;;;7.40;2.65;;;20.60;50.60;;;;;;5050299;28;20049;-77
2021/12/21 13:15:56;;;;;;;6.22;2.70;;;20.50;50.60;;;;;;5050947;28;20513;-73
2021/12/21 13:18:22;;;;;;;4.18;2.47;;;20.50;50.40;;;;;;5035914;28;20052;-73
2021/12/21 13:20:49;;;;;;;6.55;2.67;;;20.50;50.20;;;;;;5033500;28;20044;-77
2021/12/21 13:23:26;;;;;;;6.07;2.58;;;20.50;50.40;;;;;;5033371;28;20064;-79
2021/12/21 13:26:03;;;;;;;5.97;2.38;;;20.60;50.60;;;;;;5032558;28;20120;-77
2021/12/21 13:28:30;;;;;;;7.10;2.50;;;20.60;50.80;;;;;;5039914;28;20046;-76
2021/12/21 13:30:59;;;;;;;6.10;2.80;;;20.60;50.80;;;;;;5041179;28;20052;-76
2021/12/21 13:33:26;;;;;;;5.07;2.40;;;20.60;51.10;;;;;;5034608;28;20040;-76
2021/12/21 13:35:58;;;;;;;4.18;2.30;;;20.60;51.10;;;;;;5032720;28;20041;-77
2021/12/21 13:38:25;;;;;;;6.70;2.60;;;20.60;51.20;;;;;;5035301;28;20041;-81
2021/12/21 13:41:11;;;;;;;6.23;2.10;;;20.60;51.40;;;;;;5035228;28;20401;-77
2021/12/21 13:43:38;;;;;;;7.55;2.33;;;20.70;51.50;;;;;;5033424;28;20100;-80
2021/12/21 13:46:07;;;;;;;6.15;2.40;;;20.70;51.50;;;;;;5032360;28;20049;-77